createdAt,value
2018-01-29T00:01:48.818Z,10.86
2018-01-29T00:04:18.254Z,10.80
2018-01-29T00:06:48.320Z,10.80
2018-01-29T00:09:18.428Z,10.78
2018-01-29T00:11:48.095Z,10.73
2018-01-29T00:14:17.261Z,10.81
2018-01-29T00:16:46.392Z,10.78
2018-01-29T00:19:15.829Z,10.65
2018-01-29T00:21:44.980Z,10.72
2018-01-29T00:24:14.100Z,10.75
2018-01-29T00:26:44.832Z,10.74
2018-01-29T00:29:14.058Z,10.77
2018-01-29T00:31:43.390Z,10.76
2018-01-29T00:34:12.914Z,10.79
2018-01-29T00:36:42.136Z,10.73
2018-01-29T00:39:11.314Z,10.66
2018-01-29T00:41:40.924Z,10.68
2018-01-29T00:44:10.087Z,10.78
2018-01-29T00:46:39.216Z,10.88
2018-01-29T00:49:08.854Z,10.83
2018-01-29T00:51:38.050Z,10.81
2018-01-29T00:54:07.269Z,10.77
2018-01-29T00:56:36.790Z,10.79
2018-01-29T00:59:06.347Z,10.71
2018-01-29T01:01:35.577Z,10.73
2018-01-29T01:04:06.032Z,10.67
2018-01-29T01:06:35.270Z,10.68
2018-01-29T01:09:05.447Z,10.59
2018-01-29T01:11:34.872Z,10.67
2018-01-29T01:14:06.374Z,10.64
2018-01-29T01:16:36.803Z,10.58
2018-01-29T01:19:06.262Z,10.59
2018-01-29T01:21:35.362Z,10.55
2018-01-29T01:24:05.380Z,10.51
2018-01-29T01:26:34.924Z,10.58
2018-01-29T01:29:04.326Z,10.51
2018-01-29T01:31:33.457Z,10.62
2018-01-29T01:34:05.006Z,10.63
2018-01-29T01:36:34.293Z,10.57
2018-01-29T01:39:03.665Z,10.59
2018-01-29T01:41:34.093Z,10.54
2018-01-29T01:44:04.014Z,10.56
2018-01-29T01:46:33.132Z,10.50
2018-01-29T01:49:02.775Z,10.58
2018-01-29T01:51:31.931Z,10.54
2018-01-29T01:54:01.091Z,10.53
2018-01-29T01:56:30.671Z,10.49
2018-01-29T01:58:59.784Z,10.54
2018-01-29T02:01:28.977Z,10.57
2018-01-29T02:03:58.474Z,10.66
2018-01-29T02:06:27.620Z,10.67
2018-01-29T02:08:56.762Z,10.55
2018-01-29T02:11:26.269Z,10.62
2018-01-29T02:13:55.439Z,10.67
2018-01-29T02:16:24.592Z,10.68
2018-01-29T02:18:55.328Z,10.73
2018-01-29T02:21:24.489Z,10.67
2018-01-29T02:23:53.639Z,10.55
2018-01-29T02:26:23.122Z,10.66
2018-01-29T02:28:52.226Z,10.67
2018-01-29T02:31:21.368Z,10.64
2018-01-29T02:33:50.821Z,10.60
2018-01-29T02:36:20.079Z,10.71
2018-01-29T02:38:49.219Z,10.67
2018-01-29T02:41:18.621Z,10.69
2018-01-29T02:43:47.752Z,10.54
2018-01-29T02:46:17.036Z,10.60
2018-01-29T02:48:46.558Z,10.56
2018-01-29T02:51:15.786Z,10.51
2018-01-29T02:53:45.138Z,10.49
2018-01-29T02:56:15.754Z,10.51
2018-01-29T02:58:45.167Z,10.62
2018-01-29T03:01:14.283Z,10.56
2018-01-29T03:03:44.807Z,10.41
2018-01-29T03:06:14.045Z,10.37
2018-01-29T03:08:43.432Z,10.45
2018-01-29T03:11:12.888Z,10.39
2018-01-29T03:13:42.286Z,10.24
2018-01-29T03:16:11.599Z,10.27
2018-01-29T03:18:41.221Z,10.29
2018-01-29T03:21:10.423Z,10.23
2018-01-29T03:23:39.701Z,10.28
2018-01-29T03:26:09.176Z,10.23
2018-01-29T03:28:38.352Z,10.14
2018-01-29T03:31:07.624Z,10.13
2018-01-29T03:33:37.126Z,10.11
2018-01-29T03:36:06.506Z,10.20
2018-01-29T03:38:35.606Z,10.06
2018-01-29T03:41:05.270Z,9.88
2018-01-29T03:43:34.484Z,10.00
2018-01-29T03:46:04.377Z,10.00
2018-01-29T03:48:33.783Z,9.98
2018-01-29T03:51:03.134Z,9.99
2018-01-29T03:53:32.308Z,10.03
2018-01-29T03:56:03.084Z,10.07
2018-01-29T03:59:34.590Z,10.09
2018-01-29T04:02:05.602Z,9.97
2018-01-29T04:04:34.733Z,9.93
2018-01-29T04:07:04.196Z,9.87
2018-01-29T04:09:33.731Z,9.89
2018-01-29T04:12:03.800Z,9.88
2018-01-29T04:14:33.159Z,9.89
2018-01-29T04:17:03.544Z,9.89
2018-01-29T04:19:32.706Z,9.91
2018-01-29T04:22:03.792Z,9.93
2018-01-29T04:24:33.249Z,9.87
2018-01-29T04:27:02.618Z,9.90
2018-01-29T04:29:31.713Z,9.84
2018-01-29T04:32:02.218Z,9.81
2018-01-29T04:34:31.388Z,9.77
2018-01-29T04:37:00.518Z,9.68
2018-01-29T04:39:30.990Z,9.73
2018-01-29T04:42:00.214Z,9.71
2018-01-29T04:44:29.451Z,9.78
2018-01-29T04:46:59.134Z,9.79
2018-01-29T04:49:28.819Z,9.79
2018-01-29T04:51:57.938Z,9.78
2018-01-29T04:54:27.419Z,9.83
2018-01-29T04:56:57.697Z,9.85
2018-01-29T04:59:27.460Z,9.83
2018-01-29T05:01:58.113Z,9.86
2018-01-29T05:04:27.214Z,9.84
2018-01-29T05:06:56.329Z,9.87
2018-01-29T05:09:25.921Z,9.91
2018-01-29T05:11:55.010Z,9.98
2018-01-29T05:14:24.161Z,10.01
2018-01-29T05:16:55.651Z,9.96
2018-01-29T05:19:24.791Z,9.94
2018-01-29T05:21:54.038Z,9.95
2018-01-29T05:24:23.589Z,9.82
2018-01-29T05:26:52.753Z,9.83
2018-01-29T05:29:21.917Z,9.88
2018-01-29T05:31:51.343Z,9.85
2018-01-29T05:34:20.539Z,9.92
2018-01-29T05:36:49.899Z,9.90
2018-01-29T05:39:19.619Z,9.93
2018-01-29T05:41:48.753Z,9.97
2018-01-29T05:44:17.965Z,10.00
2018-01-29T05:46:47.470Z,9.94
2018-01-29T05:49:16.726Z,9.91
2018-01-29T05:51:45.919Z,9.95
2018-01-29T05:54:15.495Z,10.01
2018-01-29T05:56:45.845Z,10.01
2018-01-29T05:59:15.452Z,10.07
2018-01-29T06:01:44.835Z,10.00
2018-01-29T06:04:14.041Z,10.08
2018-01-29T06:06:43.225Z,10.07
2018-01-29T06:09:13.695Z,9.89
2018-01-29T06:11:42.988Z,9.97
2018-01-29T06:14:12.121Z,9.92
2018-01-29T06:16:42.742Z,9.96
2018-01-29T06:19:11.903Z,10.00
2018-01-29T06:21:42.701Z,9.89
2018-01-29T06:24:11.898Z,9.89
2018-01-29T06:26:41.112Z,9.94
2018-01-29T06:29:10.523Z,9.93
2018-01-29T06:31:39.711Z,9.89
2018-01-29T06:34:08.911Z,9.88
2018-01-29T06:36:38.349Z,9.93
2018-01-29T06:39:07.840Z,9.93
2018-01-29T06:41:36.984Z,9.83
2018-01-29T06:44:06.943Z,9.86
2018-01-29T06:46:36.089Z,9.80
2018-01-29T06:49:06.151Z,9.85
2018-01-29T06:51:35.657Z,9.90
2018-01-29T06:54:05.684Z,9.85
2018-01-29T06:56:35.159Z,9.88
2018-01-29T06:59:05.959Z,9.87
2018-01-29T07:01:35.145Z,9.93
2018-01-29T07:04:06.108Z,9.83
2018-01-29T07:06:35.658Z,9.85
2018-01-29T07:09:05.675Z,9.84
2018-01-29T07:11:34.872Z,9.87
2018-01-29T07:14:06.579Z,9.88
2018-01-29T07:16:36.882Z,9.84
2018-01-29T07:19:06.092Z,9.73
2018-01-29T07:21:35.551Z,9.83
2018-01-29T07:24:05.399Z,9.86
2018-01-29T07:26:34.587Z,9.82
2018-01-29T07:29:04.260Z,9.82
2018-01-29T07:31:33.396Z,9.92
2018-01-29T07:34:03.836Z,9.88
2018-01-29T07:36:33.298Z,9.90
2018-01-29T07:39:04.083Z,9.98
2018-01-29T07:41:33.704Z,10.03
2018-01-29T07:44:04.417Z,9.97
2018-01-29T07:46:34.928Z,10.03
2018-01-29T07:49:05.367Z,9.95
2018-01-29T07:51:36.167Z,9.89
2018-01-29T07:54:05.968Z,9.90
2018-01-29T07:56:35.173Z,9.82
2018-01-29T07:59:05.783Z,9.78
2018-01-29T08:01:34.983Z,9.85
2018-01-29T08:04:05.377Z,9.85
2018-01-29T08:06:34.919Z,9.89
2018-01-29T08:09:06.059Z,9.89
2018-01-29T08:11:35.227Z,9.80
2018-01-29T08:14:05.998Z,9.95
2018-01-29T08:16:35.135Z,9.97
2018-01-29T08:19:05.296Z,9.91
2018-01-29T08:21:34.867Z,9.99
2018-01-29T08:24:05.661Z,10.05
2018-01-29T08:26:34.772Z,9.97
2018-01-29T08:29:04.565Z,9.95
2018-01-29T08:31:33.713Z,9.94
2018-01-29T08:34:04.004Z,10.00
2018-01-29T08:36:33.586Z,10.06
2018-01-29T08:39:05.124Z,10.17
2018-01-29T08:41:34.554Z,10.11
2018-01-29T08:44:06.176Z,10.24
2018-01-29T08:46:35.642Z,10.25
2018-01-29T08:49:05.735Z,10.32
2018-01-29T08:51:35.240Z,10.36
2018-01-29T08:54:06.567Z,10.45
2018-01-29T08:56:35.905Z,10.50
2018-01-29T08:59:05.427Z,10.51
2018-01-29T09:01:34.591Z,10.50
2018-01-29T09:04:05.055Z,10.44
2018-01-29T09:06:34.487Z,10.45
2018-01-29T09:09:04.195Z,10.43
2018-01-29T09:11:33.498Z,10.44
2018-01-29T09:14:04.072Z,10.39
2018-01-29T09:16:33.249Z,10.46
2018-01-29T09:19:03.388Z,10.48
2018-01-29T09:21:32.864Z,10.48
2018-01-29T09:24:02.831Z,10.38
2018-01-29T09:26:32.055Z,10.44
2018-01-29T09:29:01.889Z,10.45
2018-01-29T09:31:31.137Z,10.26
2018-01-29T09:34:01.347Z,10.36
2018-01-29T09:36:30.980Z,10.40
2018-01-29T09:39:00.973Z,10.42
2018-01-29T09:41:30.260Z,10.31
2018-01-29T09:43:59.788Z,10.44
2018-01-29T09:46:28.917Z,10.56
2018-01-29T09:48:58.369Z,10.61
2018-01-29T09:51:27.889Z,10.61
2018-01-29T09:53:57.158Z,10.66
2018-01-29T09:56:26.560Z,10.66
2018-01-29T09:58:57.663Z,10.63
2018-01-29T10:01:27.019Z,10.74
2018-01-29T10:03:56.206Z,10.75
2018-01-29T10:06:25.639Z,10.69
2018-01-29T10:08:54.776Z,10.80
2018-01-29T10:11:23.959Z,10.88
2018-01-29T10:13:53.407Z,10.81
2018-01-29T10:16:22.662Z,10.85
2018-01-29T10:18:51.812Z,10.95
2018-01-29T10:21:21.299Z,10.98
2018-01-29T10:23:51.042Z,10.91
2018-01-29T10:26:20.187Z,10.82
2018-01-29T10:28:49.949Z,10.86
2018-01-29T10:31:19.408Z,10.72
2018-01-29T10:33:48.620Z,10.79
2018-01-29T10:36:18.167Z,10.76
2018-01-29T10:38:48.504Z,10.84
2018-01-29T10:41:18.314Z,10.92
2018-01-29T10:43:47.775Z,10.96
2018-01-29T10:46:16.915Z,10.96
2018-01-29T10:48:48.124Z,11.00
2018-01-29T10:51:18.241Z,10.98
2018-01-29T10:53:49.429Z,11.04
2018-01-29T10:56:18.599Z,11.04
2018-01-29T10:58:49.527Z,11.06
2018-01-29T11:01:22.751Z,11.06
2018-01-29T11:03:53.356Z,11.10
2018-01-29T11:06:22.546Z,11.07
2018-01-29T11:08:52.009Z,11.21
2018-01-29T11:11:21.602Z,11.20
2018-01-29T11:13:50.760Z,11.20
2018-01-29T11:16:19.983Z,11.26
2018-01-29T11:18:50.486Z,11.28
2018-01-29T11:21:19.824Z,11.26
2018-01-29T11:23:49.073Z,11.28
2018-01-29T11:26:19.566Z,11.24
2018-01-29T11:28:49.940Z,11.27
2018-01-29T11:31:19.167Z,11.26
2018-01-29T11:33:49.664Z,11.31
2018-01-29T11:36:18.837Z,11.34
2018-01-29T11:38:48.054Z,11.37
2018-01-29T11:41:17.532Z,11.37
2018-01-29T11:43:46.963Z,11.40
2018-01-29T11:46:16.207Z,11.36
2018-01-29T11:48:46.706Z,11.39
2018-01-29T11:51:15.915Z,11.44
2018-01-29T11:53:45.057Z,11.32
2018-01-29T11:56:15.029Z,11.28
2018-01-29T11:58:47.141Z,11.28
2018-01-29T12:01:16.300Z,11.28
2018-01-29T12:03:48.876Z,11.24
2018-01-29T12:06:18.091Z,11.26
2018-01-29T12:08:47.363Z,11.25
2018-01-29T12:11:16.849Z,11.33
2018-01-29T12:13:45.964Z,11.39
2018-01-29T12:16:15.211Z,11.45
2018-01-29T12:18:44.854Z,11.43
2018-01-29T12:21:14.165Z,11.43
2018-01-29T12:23:45.459Z,11.44
2018-01-29T12:26:16.146Z,11.44
2018-01-29T12:28:46.561Z,11.49
2018-01-29T12:31:15.830Z,11.48
2018-01-29T12:33:45.388Z,11.53
2018-01-29T12:36:14.519Z,11.57
2018-01-29T12:38:44.295Z,11.63
2018-01-29T12:41:14.084Z,11.64
2018-01-29T12:43:43.367Z,11.69
2018-01-29T12:46:12.855Z,11.71
2018-01-29T12:48:42.232Z,11.77
2018-01-29T12:51:11.450Z,11.75
2018-01-29T12:53:41.309Z,11.80
2018-01-29T12:56:10.912Z,11.78
2018-01-29T12:58:40.145Z,11.83
2018-01-29T13:01:09.607Z,11.83
2018-01-29T13:03:38.795Z,11.84
2018-01-29T13:06:08.079Z,11.84
2018-01-29T13:08:38.600Z,11.87
2018-01-29T13:11:07.748Z,11.87
2018-01-29T13:13:36.927Z,11.84
2018-01-29T13:16:06.102Z,11.90
2018-01-29T13:18:35.246Z,11.90
2018-01-29T13:21:04.718Z,11.97
2018-01-29T13:23:34.167Z,11.97
2018-01-29T13:26:06.639Z,11.92
2018-01-29T13:28:35.926Z,11.93
2018-01-29T13:31:05.503Z,11.86
2018-01-29T13:33:35.074Z,11.79
2018-01-29T13:36:06.711Z,11.76
2018-01-29T13:38:36.575Z,11.75
2018-01-29T13:41:05.731Z,11.78
2018-01-29T13:43:34.883Z,11.76
2018-01-29T13:46:06.599Z,11.74
2018-01-29T13:48:35.779Z,11.76
2018-01-29T13:51:09.004Z,11.84
2018-01-29T13:53:39.743Z,11.82
2018-01-29T13:56:09.141Z,11.72
2018-01-29T13:58:38.562Z,11.67
2018-01-29T14:01:08.109Z,11.64
2018-01-29T14:03:37.265Z,11.71
2018-01-29T14:06:06.488Z,11.71
2018-01-29T14:08:36.095Z,11.71
2018-01-29T14:11:05.532Z,11.70
2018-01-29T14:13:34.879Z,11.63
2018-01-29T14:16:06.139Z,11.65
2018-01-29T14:18:35.330Z,11.62
2018-01-29T14:21:04.878Z,11.59
2018-01-29T14:23:34.972Z,11.62
2018-01-29T14:26:05.690Z,11.62
2018-01-29T14:28:35.235Z,11.57
2018-01-29T14:31:05.127Z,11.66
2018-01-29T14:33:34.369Z,11.67
2018-01-29T14:36:04.630Z,11.74
2018-01-29T14:38:36.080Z,11.73
2018-01-29T14:41:05.656Z,11.74
2018-01-29T14:43:34.851Z,11.73
2018-01-29T14:46:05.161Z,11.76
2018-01-29T14:48:34.748Z,11.67
2018-01-29T14:51:04.361Z,11.70
2018-01-29T14:53:33.822Z,11.68
2018-01-29T14:56:04.065Z,11.69
2018-01-29T14:58:34.424Z,11.61
2018-01-29T15:01:04.481Z,11.63
2018-01-29T15:03:33.945Z,11.62
2018-01-29T15:06:04.390Z,11.65
2018-01-29T15:08:33.872Z,11.67
2018-01-29T15:11:03.665Z,11.70
2018-01-29T15:13:32.966Z,11.64
2018-01-29T15:16:05.427Z,11.63
2018-01-29T15:18:35.349Z,11.60
2018-01-29T15:21:07.066Z,11.62
2018-01-29T15:23:37.098Z,11.61
2018-01-29T15:26:08.093Z,11.65
2018-01-29T15:28:37.303Z,11.61
2018-01-29T15:31:07.792Z,11.60
2018-01-29T15:33:37.078Z,11.63
2018-01-29T15:36:06.299Z,11.61
2018-01-29T15:38:37.883Z,11.67
2018-01-29T15:41:10.253Z,11.70
2018-01-29T15:43:40.130Z,11.74
2018-01-29T15:46:10.137Z,11.70
2018-01-29T15:48:39.542Z,11.68
2018-01-29T15:51:08.768Z,11.74
2018-01-29T15:53:38.267Z,11.73
2018-01-29T15:56:07.924Z,11.76
2018-01-29T15:58:37.122Z,11.75
2018-01-29T16:01:06.681Z,11.79
2018-01-29T16:03:35.867Z,11.85
2018-01-29T16:06:06.308Z,11.84
2018-01-29T16:08:35.907Z,11.79
2018-01-29T16:11:05.435Z,11.82
2018-01-29T16:13:34.731Z,11.81
2018-01-29T16:16:05.346Z,11.80
2018-01-29T16:18:34.636Z,11.80
2018-01-29T16:21:04.086Z,11.84
2018-01-29T16:23:34.004Z,11.83
2018-01-29T16:26:05.806Z,11.84
2018-01-29T16:28:35.044Z,11.91
2018-01-29T16:31:04.507Z,11.88
2018-01-29T16:33:34.109Z,11.94
2018-01-29T16:36:06.292Z,11.92
2018-01-29T16:38:35.649Z,11.99
2018-01-29T16:41:04.891Z,11.96
2018-01-29T16:43:35.419Z,11.96
2018-01-29T16:46:05.763Z,11.93
2018-01-29T16:51:17.741Z,11.84
2018-01-29T16:53:48.229Z,11.94
2018-01-29T16:56:17.978Z,11.92
2018-01-29T16:58:47.740Z,11.92
2018-01-29T17:01:22.918Z,11.96
2018-01-29T17:03:53.422Z,11.93
2018-01-29T17:06:22.741Z,11.91
2018-01-29T17:08:54.518Z,11.91
2018-01-29T17:11:23.949Z,11.90
2018-01-29T17:13:54.749Z,11.86
2018-01-29T17:16:24.463Z,11.88
2018-01-29T17:18:53.643Z,11.85
2018-01-29T17:21:22.896Z,11.86
2018-01-29T17:23:53.500Z,11.86
2018-01-29T17:26:24.150Z,11.84
2018-01-29T17:28:54.048Z,11.89
2018-01-29T17:31:25.448Z,11.80
2018-01-29T17:33:55.626Z,11.86
2018-01-29T17:36:25.202Z,11.84
2018-01-29T17:38:54.706Z,11.88
2018-01-29T17:41:23.846Z,11.86
2018-01-29T17:43:53.093Z,11.84
2018-01-29T17:46:22.617Z,11.80
2018-01-29T17:48:51.790Z,11.87
2018-01-29T17:51:20.899Z,11.89
2018-01-29T17:53:50.501Z,11.88
2018-01-29T17:56:19.850Z,11.88
2018-01-29T17:58:49.196Z,11.90
2018-01-29T18:01:18.643Z,11.95
2018-01-29T18:03:47.946Z,11.89
2018-01-29T18:06:17.415Z,11.89
2018-01-29T18:08:49.760Z,11.99
2018-01-29T18:11:18.960Z,11.94
2018-01-29T18:13:53.517Z,11.94
2018-01-29T18:16:27.561Z,11.93
2018-01-29T18:18:56.983Z,11.92
2018-01-29T18:21:26.310Z,11.90
2018-01-29T18:23:55.626Z,11.95
2018-01-29T18:26:24.761Z,11.92
2018-01-29T18:28:54.400Z,11.89
2018-01-29T18:31:23.511Z,11.91
2018-01-29T18:33:52.769Z,11.90
2018-01-29T18:36:22.805Z,11.85
2018-01-29T18:38:52.121Z,11.88
2018-01-29T18:41:21.374Z,11.90
2018-01-29T18:43:51.923Z,11.88
2018-01-29T18:46:21.260Z,11.89
2018-01-29T18:48:52.572Z,11.86
2018-01-29T18:51:22.449Z,11.82
2018-01-29T18:53:51.591Z,11.87
2018-01-29T18:56:21.763Z,11.88
2018-01-29T19:01:14.664Z,11.86
2018-01-29T19:03:44.280Z,11.84
2018-01-29T19:06:13.746Z,11.89
2018-01-29T19:08:43.196Z,11.82
2018-01-29T19:11:12.473Z,11.76
2018-01-29T19:13:42.132Z,11.74
2018-01-29T19:16:11.304Z,11.74
2018-01-29T19:18:40.560Z,11.73
2018-01-29T19:21:10.481Z,11.68
2018-01-29T19:23:39.727Z,11.63
2018-01-29T19:26:08.877Z,11.61
2018-01-29T19:28:38.328Z,11.59
2018-01-29T19:31:07.547Z,11.59
2018-01-29T19:33:36.775Z,11.59
2018-01-29T19:36:10.076Z,11.60
2018-01-29T19:38:39.261Z,11.58
2018-01-29T19:41:09.202Z,11.57
2018-01-29T19:43:38.736Z,11.57
2018-01-29T19:46:07.864Z,11.61
2018-01-29T19:48:37.059Z,11.58
2018-01-29T19:51:06.548Z,11.58
2018-01-29T19:53:35.728Z,11.58
2018-01-29T19:56:06.614Z,11.61
2018-01-29T19:58:36.233Z,11.56
2018-01-29T20:01:06.092Z,11.64
2018-01-29T20:03:35.328Z,11.65
2018-01-29T20:06:05.690Z,11.67
2018-01-29T20:08:34.839Z,11.58
2018-01-29T20:11:04.327Z,11.66
2018-01-29T20:13:33.826Z,11.66
2018-01-29T20:16:04.340Z,11.60
2018-01-29T20:18:33.562Z,11.60
2018-01-29T20:21:05.212Z,11.65
2018-01-29T20:23:34.548Z,11.63
2018-01-29T20:26:06.796Z,11.64
2018-01-29T20:28:37.722Z,11.63
2018-01-29T20:31:08.011Z,11.62
2018-01-29T20:33:37.233Z,11.64
2018-01-29T20:36:06.725Z,11.67
2018-01-29T20:38:35.910Z,11.61
2018-01-29T20:41:05.240Z,11.61
2018-01-29T20:43:34.675Z,11.64
2018-01-29T20:46:04.590Z,11.64
2018-01-29T20:48:34.029Z,11.65
2018-01-29T20:51:05.066Z,11.58
2018-01-29T20:53:34.208Z,11.58
2018-01-29T20:56:04.339Z,11.52
2018-01-29T20:58:33.959Z,11.56
2018-01-29T21:01:04.106Z,11.57
2018-01-29T21:03:33.232Z,11.50
2018-01-29T21:06:03.742Z,11.48
2018-01-29T21:08:33.390Z,11.49
2018-01-29T21:11:02.932Z,11.50
2018-01-29T21:16:01.929Z,11.42
2018-01-29T21:18:31.184Z,11.40
2018-01-29T21:21:00.672Z,11.34
2018-01-29T21:23:29.838Z,11.39
2018-01-29T21:25:59.017Z,11.37
2018-01-29T21:28:28.584Z,11.38
2018-01-29T21:30:57.824Z,11.34
2018-01-29T21:33:26.967Z,11.35
2018-01-29T21:35:57.027Z,11.37
2018-01-29T21:38:26.354Z,11.42
2018-01-29T21:40:55.800Z,11.36
2018-01-29T21:43:25.220Z,11.37
2018-01-29T21:45:54.363Z,11.42
2018-01-29T21:48:23.572Z,11.44
2018-01-29T21:50:52.969Z,11.42
2018-01-29T21:53:22.226Z,11.43
2018-01-29T21:55:52.008Z,11.43
2018-01-29T21:58:22.428Z,11.42
2018-01-29T22:00:58.720Z,11.42
2018-01-29T22:03:31.186Z,11.40
2018-01-29T22:06:00.822Z,11.44
2018-01-29T22:08:30.082Z,11.43
2018-01-29T22:10:59.629Z,11.46
2018-01-29T22:13:29.220Z,11.53
2018-01-29T22:15:58.921Z,11.49
2018-01-29T22:18:28.704Z,11.39
2018-01-29T22:20:59.735Z,11.45
2018-01-29T22:23:28.844Z,11.39
2018-01-29T22:25:58.404Z,11.34
2018-01-29T22:28:27.568Z,11.38
2018-01-29T22:30:57.042Z,11.37
2018-01-29T22:33:26.689Z,11.27
2018-01-29T22:35:56.236Z,11.26
2018-01-29T22:38:25.388Z,11.21
2018-01-29T22:40:54.639Z,11.27
2018-01-29T22:43:24.016Z,11.27
2018-01-29T22:45:54.504Z,11.23
2018-01-29T22:48:23.992Z,11.25
2018-01-29T22:50:53.086Z,11.22
2018-01-29T22:53:22.262Z,11.30
2018-01-29T22:55:52.932Z,11.32
2018-01-29T22:58:22.315Z,11.25
2018-01-29T23:00:51.624Z,11.28
2018-01-29T23:03:21.127Z,11.27
2018-01-29T23:05:50.249Z,11.31
2018-01-29T23:08:19.382Z,11.28
2018-01-29T23:10:48.841Z,11.33
2018-01-29T23:13:18.047Z,11.31
2018-01-29T23:15:47.216Z,11.38
2018-01-29T23:18:16.552Z,11.41
2018-01-29T23:20:46.012Z,11.39
2018-01-29T23:23:15.250Z,11.40
2018-01-29T23:25:44.799Z,11.27
2018-01-29T23:28:14.311Z,11.21
2018-01-29T23:30:43.932Z,11.21
2018-01-29T23:33:13.386Z,11.18
2018-01-29T23:35:42.528Z,11.15
2018-01-29T23:38:11.912Z,11.13
2018-01-29T23:40:41.380Z,11.14
2018-01-29T23:43:10.478Z,11.19
2018-01-29T23:45:39.615Z,11.16
2018-01-29T23:48:09.057Z,11.09
2018-01-29T23:50:38.180Z,11.08
2018-01-29T23:53:07.314Z,11.10
2018-01-29T23:55:36.443Z,11.12
2018-01-29T23:58:06.277Z,11.09
